Glentana, Montana
Current Conditions -  °F | °C
As of 11:16 AM on Friday 28 Nov 2014 (Local Time) from KGGW Reporting Station
Haze Haze  
Wind Chill: 10°   Ceiling: Unl
Heat Index: 23°   Visibility: 4mi
Dew Point: 20°   Wind: 16mph
Humidity: 88%   Direction: 100°E
Pressure: 29.47"   Gusts: NA
Location:  48.85°N, 106.25°W
Report Text: KGGW 281816Z AUTO 10014KT 4SM BR SCT004 M05/M07 A2947 RMK AO2 T10501067
Loading
Personal Weather Stations






























Interactive Weather Map New forecast layout! Learn more

10-Day Weather Forecast

Advertisements
Track Severe Weather on mobile